Gregory David — WDB9815 — position and weather

sailwx.info

Track history (hours):
 
Tides and Currents Weather Stations Pressure Air Temp Water Temp Dewpoint Dewpoint Depression Visibility Wind Speed Wind Dir Waves Ship Positions

Gregory David

Owner: Steel City Marine Transport, Inc, Freedom, PA. More information available from US FCC via Universal Licensing System and Coast Guard Vessel Documentation Center.

Last reported at 2017-Nov-14 04:58 UTC. Time now 2017-Nov-22 07:12 UTC.
Position N 32°49' W 091°09'.
Warning: this ship's position is 8 days out of date.

Length 50 m.

Type: Towing. MMSI: 366983290.

Date/timePositionNaut miles runAvg speedWind from/ knotsBaromVisibWave heightAir tempDewpointWater temp
2017-Nov-14 04:58N 32°49' W 091°09'2 4.3
2017-Nov-14 04:30N 32°47' W 091°09'2 4.2
2017-Nov-14 03:59N 32°45' W 091°09'5 2.0
2017-Nov-14 01:39N 32°40' W 091°07'1 4.6
2017-Nov-14 01:29N 32°40' W 091°08'2 4.0
2017-Nov-14 01:00N 32°38' W 091°09'2 4.3
2017-Nov-14 00:30N 32°36' W 091°08'2 4.6
2017-Nov-14 00:01N 32°34' W 091°07'2 4.2
2017-Nov-13 23:30N 32°32' W 091°06'3 5.2
2017-Nov-13 23:00N 32°30' W 091°07'2 4.4
2017-Nov-13 22:30N 32°28' W 091°06'2 4.0
2017-Nov-13 22:00N 32°27' W 091°04'  
2017-Nov-04 15:21N 31°59' W 091°06'3 8.0
2017-Nov-04 14:56N 32°02' W 091°04'4 7.1
2017-Nov-04 14:21N 32°06' W 091°06'2 5.6
2017-Nov-04 14:01N 32°08' W 091°06'4 7.2
2017-Nov-04 13:31N 32°07' W 091°02'4 7.6
2017-Nov-04 13:00N 32°11' W 090°60'4 8.2
2017-Nov-04 12:31N 32°15' W 090°59'4 7.8
2017-Nov-04 12:01N 32°18' W 090°56'3 6.1
2017-Nov-04 11:31N 32°20' W 090°55'4 7.6
2017-Nov-04 11:01N 32°21' W 090°59'3 6.5
2017-Nov-04 10:30N 32°24' W 090°59'3 7.0
2017-Nov-04 10:01N 32°26' W 091°03'3 6.4
2017-Nov-04 09:31N 32°28' W 091°06'2 3.1
2017-Nov-04 09:00N 32°29' W 091°07'0 0.0
2017-Nov-04 08:30N 32°29' W 091°07'0 0.0
2017-Nov-04 08:00N 32°29' W 091°07'0 0.0
2017-Nov-04 07:30N 32°29' W 091°07'0 0.0
2017-Nov-04 07:00N 32°29' W 091°07'0 0.0
2017-Nov-04 06:30N 32°29' W 091°07'0 0.0
2017-Nov-04 06:00N 32°29' W 091°07'0 0.0
2017-Nov-04 05:30N 32°29' W 091°07'0 0.0
2017-Nov-04 05:00N 32°29' W 091°07'  
Track history (hours):
 
Tides and Currents Weather Stations Pressure Air Temp Water Temp Dewpoint Dewpoint Depression Visibility Wind Speed Wind Dir Waves Ship Positions

Gregory David

Owner: Steel City Marine Transport, Inc, Freedom, PA. More information available from US FCC via Universal Licensing System and Coast Guard Vessel Documentation Center.

Last reported at 2017-Nov-14 04:58 UTC. Time now 2017-Nov-22 07:12 UTC.
Position N 32°49' W 091°09'.
Warning: this ship's position is 8 days out of date.

Length 50 m.

Type: Towing. MMSI: 366983290.

Date/timePositionNaut miles runAvg speedWind from/ knotsBaromVisibWave heightAir tempDewpointWater temp
2017-Nov-14 04:58N 32°49' W 091°09'2 4.3
2017-Nov-14 04:30N 32°47' W 091°09'2 4.2
2017-Nov-14 03:59N 32°45' W 091°09'5 2.0
2017-Nov-14 01:39N 32°40' W 091°07'1 4.6
2017-Nov-14 01:29N 32°40' W 091°08'2 4.0
2017-Nov-14 01:00N 32°38' W 091°09'2 4.3
2017-Nov-14 00:30N 32°36' W 091°08'2 4.6
2017-Nov-14 00:01N 32°34' W 091°07'2 4.2
2017-Nov-13 23:30N 32°32' W 091°06'3 5.2
2017-Nov-13 23:00N 32°30' W 091°07'2 4.4
2017-Nov-13 22:30N 32°28' W 091°06'2 4.0
2017-Nov-13 22:00N 32°27' W 091°04'  
2017-Nov-04 15:21N 31°59' W 091°06'3 8.0
2017-Nov-04 14:56N 32°02' W 091°04'4 7.1
2017-Nov-04 14:21N 32°06' W 091°06'2 5.6
2017-Nov-04 14:01N 32°08' W 091°06'4 7.2
2017-Nov-04 13:31N 32°07' W 091°02'4 7.6
2017-Nov-04 13:00N 32°11' W 090°60'4 8.2
2017-Nov-04 12:31N 32°15' W 090°59'4 7.8
2017-Nov-04 12:01N 32°18' W 090°56'3 6.1
2017-Nov-04 11:31N 32°20' W 090°55'4 7.6
2017-Nov-04 11:01N 32°21' W 090°59'3 6.5
2017-Nov-04 10:30N 32°24' W 090°59'3 7.0
2017-Nov-04 10:01N 32°26' W 091°03'3 6.4
2017-Nov-04 09:31N 32°28' W 091°06'2 3.1
2017-Nov-04 09:00N 32°29' W 091°07'0 0.0
2017-Nov-04 08:30N 32°29' W 091°07'0 0.0
2017-Nov-04 08:00N 32°29' W 091°07'0 0.0
2017-Nov-04 07:30N 32°29' W 091°07'0 0.0
2017-Nov-04 07:00N 32°29' W 091°07'0 0.0
2017-Nov-04 06:30N 32°29' W 091°07'0 0.0
2017-Nov-04 06:00N 32°29' W 091°07'0 0.0
2017-Nov-04 05:30N 32°29' W 091°07'0 0.0
2017-Nov-04 05:00N 32°29' W 091°07'  

Dump ship's entire track history